Ratliff City, Oklahoma
Current Conditions -  °F | °C
As of 6:35 PM on Monday 24 Nov 2014 (Local Time) from KPVJ Reporting Station
Clear Clear  
Wind Chill: 49°   Ceiling: Unl
Heat Index: 49°   Visibility: 10mi
Dew Point: 24°   Wind: 0mph
Humidity: 38%   Direction: NA
Pressure: 30.05"   Gusts: NA
Location:  34.45°N, 97.51°W
Report Text: KPVJ 250035Z AUTO 00000KT 10SM CLR 10/M04 A3005 RMK AO2 T00951044
Loading
Personal Weather Stations






























Interactive Weather Map New forecast layout! Learn more

10-Day Weather Forecast

Advertisements
Track Severe Weather on mobile